createdAt,value
2018-12-23T00:00:22.891Z,6.80
2018-12-23T00:02:50.962Z,6.80
2018-12-23T00:05:19.519Z,6.90
2018-12-23T00:07:47.540Z,6.90
2018-12-23T00:10:15.587Z,6.90
2018-12-23T00:12:43.890Z,6.90
2018-12-23T00:15:11.934Z,6.90
2018-12-23T00:17:43.712Z,7.00
2018-12-23T00:20:11.789Z,6.90
2018-12-23T00:22:39.829Z,6.90
2018-12-23T00:25:14.068Z,7.00
2018-12-23T00:27:42.338Z,6.90
2018-12-23T00:30:10.261Z,6.80
2018-12-23T00:32:38.284Z,6.90
2018-12-23T00:35:06.537Z,6.90
2018-12-23T00:37:34.806Z,6.90
2018-12-23T00:40:03.511Z,6.90
2018-12-23T00:42:31.355Z,6.80
2018-12-23T00:44:59.224Z,6.90
2018-12-23T00:47:27.516Z,7.00
2018-12-23T00:49:55.567Z,7.00
2018-12-23T00:52:23.432Z,7.00
2018-12-23T00:54:51.739Z,7.00
2018-12-23T00:57:19.806Z,6.90
2018-12-23T00:59:48.319Z,6.90
2018-12-23T01:02:16.252Z,7.00
2018-12-23T01:04:44.519Z,7.00
2018-12-23T01:07:12.796Z,7.00
2018-12-23T01:09:41.093Z,7.00
2018-12-23T01:12:08.931Z,7.10
2018-12-23T01:14:37.171Z,7.10
2018-12-23T01:17:05.499Z,7.10
2018-12-23T01:19:33.343Z,7.10
2018-12-23T01:22:01.328Z,7.10
2018-12-23T01:24:30.260Z,7.10
2018-12-23T01:26:58.490Z,7.10
2018-12-23T01:29:26.333Z,7.20
2018-12-23T01:31:54.217Z,7.10
2018-12-23T01:34:22.494Z,7.10
2018-12-23T01:36:50.958Z,7.20
2018-12-23T01:39:19.259Z,7.20
2018-12-23T01:41:47.301Z,7.20
2018-12-23T01:44:19.276Z,7.20
2018-12-23T01:46:47.540Z,7.20
2018-12-23T01:49:16.433Z,7.30
2018-12-23T01:51:44.909Z,7.30
2018-12-23T01:54:13.195Z,7.30
2018-12-23T01:56:41.666Z,7.20
2018-12-23T01:59:10.146Z,7.20
2018-12-23T02:01:38.229Z,7.20
2018-12-23T02:04:15.724Z,7.20
2018-12-23T02:06:43.881Z,7.20
2018-12-23T02:09:11.746Z,7.20
2018-12-23T02:11:39.883Z,7.30
2018-12-23T02:14:08.131Z,7.20
2018-12-23T02:16:36.651Z,7.20
2018-12-23T02:19:04.703Z,7.20
2018-12-23T02:21:32.728Z,7.20
2018-12-23T02:24:01.119Z,7.20
2018-12-23T02:26:29.268Z,7.20
2018-12-23T02:28:57.554Z,7.10
2018-12-23T02:31:26.060Z,7.20
2018-12-23T02:33:54.091Z,7.30
2018-12-23T02:36:22.366Z,7.30
2018-12-23T02:42:29.472Z,7.20
2018-12-23T02:44:57.357Z,7.20
2018-12-23T02:47:25.183Z,7.30
2018-12-23T02:49:53.105Z,7.30
2018-12-23T02:52:24.833Z,7.30
2018-12-23T02:54:52.802Z,7.30
2018-12-23T02:57:20.825Z,7.30
2018-12-23T02:59:49.139Z,7.40
2018-12-23T03:02:17.431Z,7.40
2018-12-23T03:04:45.280Z,7.40
2018-12-23T03:07:13.370Z,7.40
2018-12-23T03:09:41.269Z,7.40
2018-12-23T03:12:09.511Z,7.40
2018-12-23T03:14:37.732Z,7.40
2018-12-23T03:17:05.633Z,7.50
2018-12-23T03:19:33.432Z,7.50
2018-12-23T03:22:01.391Z,7.40
2018-12-23T03:24:29.466Z,7.50
2018-12-23T03:26:57.523Z,7.40
2018-12-23T03:29:25.918Z,7.50
2018-12-23T03:31:53.878Z,7.50
2018-12-23T03:34:22.230Z,7.50
2018-12-23T03:36:50.504Z,7.50
2018-12-23T03:39:18.472Z,7.40
2018-12-23T03:41:46.747Z,7.50
2018-12-23T03:44:15.255Z,7.50
2018-12-23T03:46:43.504Z,7.50
2018-12-23T03:49:11.591Z,7.50
2018-12-23T03:51:39.506Z,7.40
2018-12-23T03:54:07.312Z,7.50
2018-12-23T03:56:35.392Z,7.40
2018-12-23T03:59:03.241Z,7.50
2018-12-23T04:01:31.107Z,7.50
2018-12-23T04:03:59.364Z,7.40
2018-12-23T04:06:27.272Z,7.40
2018-12-23T04:08:55.485Z,7.50
2018-12-23T04:11:23.365Z,7.50
2018-12-23T04:13:51.664Z,7.50
2018-12-23T04:16:19.533Z,7.50
2018-12-23T04:18:47.397Z,7.60
2018-12-23T04:21:15.189Z,7.60
2018-12-23T04:23:43.726Z,7.60
2018-12-23T04:26:11.609Z,7.50
2018-12-23T04:28:39.473Z,7.60
2018-12-23T04:31:07.451Z,7.60
2018-12-23T04:33:35.652Z,7.60
2018-12-23T04:36:03.510Z,7.60
2018-12-23T04:38:31.758Z,7.60
2018-12-23T04:40:59.793Z,7.60
2018-12-23T04:43:28.207Z,7.60
2018-12-23T04:45:56.378Z,7.60
2018-12-23T04:48:24.449Z,7.60
2018-12-23T04:50:52.532Z,7.60
2018-12-23T04:53:25.711Z,7.60
2018-12-23T04:55:53.576Z,7.60
2018-12-23T04:58:21.457Z,7.60
2018-12-23T05:00:50.435Z,7.60
2018-12-23T05:03:19.324Z,7.60
2018-12-23T05:05:47.134Z,7.60
2018-12-23T05:08:15.591Z,7.60
2018-12-23T05:10:43.436Z,7.60
2018-12-23T05:13:11.301Z,7.60
2018-12-23T05:15:39.129Z,7.60
2018-12-23T05:18:07.239Z,7.60
2018-12-23T05:20:35.101Z,7.60
2018-12-23T05:23:02.966Z,7.50
2018-12-23T05:25:30.854Z,7.50
2018-12-23T05:27:59.530Z,7.40
2018-12-23T05:30:27.398Z,7.30
2018-12-23T05:32:55.658Z,7.40
2018-12-23T05:35:23.626Z,7.40
2018-12-23T05:37:51.413Z,7.50
2018-12-23T05:40:19.358Z,7.50
2018-12-23T05:42:47.224Z,7.50
2018-12-23T05:45:15.089Z,7.50
2018-12-23T05:47:43.365Z,7.50
2018-12-23T05:50:11.230Z,7.50
2018-12-23T05:52:39.083Z,7.50
2018-12-23T05:55:07.401Z,7.50
2018-12-23T05:57:35.249Z,7.50
2018-12-23T06:00:03.103Z,7.50
2018-12-23T06:02:33.449Z,7.50
2018-12-23T06:05:02.333Z,7.50
2018-12-23T06:07:30.183Z,7.40
2018-12-23T06:10:01.734Z,7.50
2018-12-23T06:12:29.600Z,7.40
2018-12-23T06:14:57.469Z,7.40
2018-12-23T06:17:25.357Z,7.30
2018-12-23T06:19:53.627Z,7.30
2018-12-23T06:22:21.521Z,7.30
2018-12-23T06:24:50.125Z,7.30
2018-12-23T06:27:18.497Z,7.30
2018-12-23T06:29:46.507Z,7.30
2018-12-23T06:32:14.387Z,7.40
2018-12-23T06:34:42.439Z,7.30
2018-12-23T06:37:10.525Z,7.40
2018-12-23T06:39:38.479Z,7.40
2018-12-23T06:42:06.753Z,7.30
2018-12-23T06:44:34.823Z,7.20
2018-12-23T06:47:03.117Z,7.20
2018-12-23T06:49:30.987Z,7.30
2018-12-23T06:51:58.831Z,7.30
2018-12-23T06:54:30.405Z,7.20
2018-12-23T06:56:58.247Z,7.20
2018-12-23T06:59:26.089Z,7.30
2018-12-23T07:01:53.979Z,7.40
2018-12-23T07:04:22.014Z,7.30
2018-12-23T07:06:49.934Z,7.20
2018-12-23T07:09:18.116Z,7.20
2018-12-23T07:11:45.977Z,7.20
2018-12-23T07:14:14.027Z,7.20
2018-12-23T07:16:41.807Z,7.20
2018-12-23T07:19:09.757Z,7.20
2018-12-23T07:21:37.917Z,7.20
2018-12-23T07:24:06.307Z,7.20
2018-12-23T07:26:34.481Z,7.30
2018-12-23T07:29:02.363Z,7.30
2018-12-23T07:31:30.212Z,7.30
2018-12-23T07:33:58.093Z,7.30
2018-12-23T07:36:29.806Z,7.40
2018-12-23T07:38:57.708Z,7.40
2018-12-23T07:41:25.576Z,7.40
2018-12-23T07:43:53.402Z,7.40
2018-12-23T07:46:21.382Z,7.40
2018-12-23T07:48:49.369Z,7.40
2018-12-23T07:51:17.413Z,7.40
2018-12-23T07:53:45.304Z,7.40
2018-12-23T07:56:13.374Z,7.40
2018-12-23T07:58:41.243Z,7.40
2018-12-23T08:01:09.031Z,7.40
2018-12-23T08:03:37.368Z,7.40
2018-12-23T08:06:05.350Z,7.40
2018-12-23T08:08:33.222Z,7.40
2018-12-23T08:11:01.114Z,7.50
2018-12-23T08:13:29.175Z,7.50
2018-12-23T08:15:57.050Z,7.50
2018-12-23T08:18:25.099Z,7.50
2018-12-23T08:20:54.388Z,7.60
2018-12-23T08:23:22.255Z,7.50
2018-12-23T08:25:50.131Z,7.50
2018-12-23T08:28:18.001Z,7.60
2018-12-23T08:30:46.024Z,7.50
2018-12-23T08:33:14.112Z,7.60
2018-12-23T08:35:42.097Z,7.60
2018-12-23T08:38:09.906Z,7.60
2018-12-23T08:40:37.942Z,7.60
2018-12-23T08:43:05.738Z,7.60
2018-12-23T08:45:33.553Z,7.60
2018-12-23T08:48:01.385Z,7.70
2018-12-23T08:50:29.804Z,7.60
2018-12-23T08:52:57.617Z,7.60
2018-12-23T08:55:25.534Z,7.60
2018-12-23T08:57:53.321Z,7.60
2018-12-23T09:00:21.117Z,7.60
2018-12-23T09:02:48.912Z,7.60
2018-12-23T09:05:16.715Z,7.60
2018-12-23T09:07:52.814Z,7.60
2018-12-23T09:10:14.903Z,7.60
2018-12-23T09:12:42.723Z,7.60
2018-12-23T09:15:10.714Z,7.40
2018-12-23T09:17:39.627Z,7.70
2018-12-23T09:20:07.436Z,7.80
2018-12-23T09:22:35.255Z,7.80
2018-12-23T09:25:03.642Z,7.90
2018-12-23T09:27:31.443Z,7.80
2018-12-23T09:30:01.365Z,7.70
2018-12-23T09:32:29.255Z,7.70
2018-12-23T09:34:57.398Z,7.80
2018-12-23T09:37:25.197Z,7.80
2018-12-23T09:39:53.106Z,7.80
2018-12-23T09:42:21.109Z,7.80
2018-12-23T09:44:48.983Z,7.70
2018-12-23T09:47:16.931Z,7.70
2018-12-23T09:49:44.742Z,7.60
2018-12-23T09:52:13.104Z,7.60
2018-12-23T09:54:41.370Z,7.60
2018-12-23T09:57:09.452Z,7.60
2018-12-23T09:59:37.331Z,7.60
2018-12-23T10:02:05.813Z,7.60
2018-12-23T10:04:33.650Z,7.50
2018-12-23T10:07:02.456Z,7.50
2018-12-23T10:09:30.335Z,7.60
2018-12-23T10:11:58.283Z,7.50
2018-12-23T10:14:26.567Z,7.50
2018-12-23T10:16:54.360Z,7.50
2018-12-23T10:19:22.205Z,7.50
2018-12-23T10:21:50.267Z,7.50
2018-12-23T10:24:18.050Z,7.60
2018-12-23T10:26:46.779Z,7.60
2018-12-23T10:29:15.050Z,7.70
2018-12-23T10:31:43.023Z,7.70
2018-12-23T10:34:11.417Z,7.60
2018-12-23T10:36:39.784Z,7.60
2018-12-23T10:39:07.882Z,7.70
2018-12-23T10:41:35.745Z,7.70
2018-12-23T10:44:03.826Z,7.70
2018-12-23T10:46:31.626Z,7.60
2018-12-23T10:48:59.548Z,7.70
2018-12-23T10:51:28.135Z,7.70
2018-12-23T10:53:56.202Z,7.80
2018-12-23T10:56:24.272Z,7.70
2018-12-23T10:58:52.137Z,7.70
2018-12-23T11:01:20.255Z,7.70
2018-12-23T11:03:48.281Z,7.80
2018-12-23T11:06:16.145Z,7.70
2018-12-23T11:08:43.973Z,7.70
2018-12-23T11:11:12.168Z,7.60
2018-12-23T11:13:40.664Z,7.60
2018-12-23T11:16:08.505Z,7.60
2018-12-23T11:18:36.361Z,7.70
2018-12-23T11:21:04.360Z,7.70
2018-12-23T11:23:32.677Z,7.70
2018-12-23T11:26:00.478Z,7.70
2018-12-23T11:28:28.864Z,7.70
2018-12-23T11:30:56.821Z,7.80
2018-12-23T11:33:24.729Z,7.80
2018-12-23T11:35:52.993Z,7.80
2018-12-23T11:38:20.795Z,7.70
2018-12-23T11:40:48.622Z,7.80
2018-12-23T11:43:16.753Z,7.80
2018-12-23T11:45:44.660Z,7.80
2018-12-23T11:48:12.454Z,7.80
2018-12-23T11:50:40.497Z,7.80
2018-12-23T11:53:09.093Z,7.80
2018-12-23T11:55:36.944Z,7.80
2018-12-23T11:58:04.953Z,7.80
2018-12-23T12:00:32.879Z,7.80
2018-12-23T12:03:00.662Z,7.90
2018-12-23T12:05:28.450Z,7.80
2018-12-23T12:07:56.680Z,7.80
2018-12-23T12:10:24.461Z,7.90
2018-12-23T12:12:52.255Z,7.80
2018-12-23T12:15:20.492Z,7.90
2018-12-23T12:17:48.389Z,7.90
2018-12-23T12:20:16.315Z,7.80
2018-12-23T12:22:44.797Z,7.80
2018-12-23T12:25:12.673Z,7.90
2018-12-23T12:27:40.528Z,7.90
2018-12-23T12:30:09.749Z,7.90
2018-12-23T12:32:37.553Z,8.00
2018-12-23T12:35:05.357Z,7.90
2018-12-23T12:37:34.352Z,7.90
2018-12-23T12:40:02.191Z,7.90
2018-12-23T12:42:30.286Z,8.00
2018-12-23T12:44:58.073Z,7.90
2018-12-23T12:47:25.933Z,7.90
2018-12-23T12:49:53.989Z,7.90
2018-12-23T12:52:22.897Z,7.90
2018-12-23T12:54:51.045Z,7.80
2018-12-23T12:57:18.914Z,7.90
2018-12-23T12:59:46.775Z,7.80
2018-12-23T13:02:15.176Z,7.80
2018-12-23T13:04:42.974Z,7.80
2018-12-23T13:07:11.607Z,7.80
2018-12-23T13:09:40.100Z,7.60
2018-12-23T13:12:07.905Z,7.60
2018-12-23T13:14:36.433Z,7.60
2018-12-23T13:17:04.566Z,7.70
2018-12-23T13:19:35.958Z,7.60
2018-12-23T13:22:06.687Z,7.50
2018-12-23T13:24:34.758Z,7.60
2018-12-23T13:27:02.624Z,7.50
2018-12-23T13:29:56.329Z,7.60
2018-12-23T13:32:24.365Z,7.60
2018-12-23T13:34:52.150Z,7.60
2018-12-23T13:37:20.010Z,7.60
2018-12-23T13:39:47.958Z,7.50
2018-12-23T13:42:20.641Z,7.50
2018-12-23T13:44:57.823Z,7.70
2018-12-23T13:47:39.414Z,7.60
2018-12-23T13:50:16.598Z,7.60
2018-12-23T13:52:52.446Z,7.60
2018-12-23T13:55:36.900Z,7.60
2018-12-23T14:02:37.863Z,7.60
2018-12-23T14:05:45.819Z,7.60
2018-12-23T14:08:53.831Z,7.50
2018-12-23T14:12:01.775Z,7.60
2018-12-23T14:43:07.444Z,7.40
2018-12-23T14:45:59.576Z,7.40
2018-12-23T14:58:13.570Z,7.50
2018-12-23T15:01:23.113Z,7.50
2018-12-23T15:04:07.555Z,7.50
2018-12-23T15:07:15.718Z,7.60
2018-12-23T15:10:38.683Z,7.50
2018-12-23T15:13:36.619Z,7.50
2018-12-23T15:19:43.483Z,7.50
2018-12-23T15:35:39.272Z,7.80
2018-12-23T15:38:54.677Z,7.70
2018-12-23T15:41:46.736Z,7.70
2018-12-23T15:51:02.738Z,7.70
2018-12-23T16:03:17.603Z,7.70
2018-12-23T16:05:59.830Z,7.60
2018-12-23T16:09:08.152Z,7.60
2018-12-23T16:18:35.769Z,7.70
2018-12-23T16:27:41.355Z,7.60
2018-12-23T16:30:51.155Z,7.70
2018-12-23T16:33:59.691Z,7.70
2018-12-23T16:40:08.317Z,7.60
2018-12-23T16:43:00.347Z,7.50
2018-12-23T16:48:57.810Z,7.50
2018-12-23T16:57:36.470Z,7.60
2018-12-23T17:09:25.889Z,7.60
2018-12-23T17:18:50.695Z,7.70
2018-12-23T17:22:00.551Z,7.70
2018-12-23T17:28:07.905Z,7.50
2018-12-23T17:34:16.637Z,7.50
2018-12-23T17:37:27.777Z,7.50
2018-12-23T17:40:36.732Z,7.50
2018-12-23T17:43:09.150Z,7.50
2018-12-23T17:49:05.084Z,7.00
2018-12-23T17:55:00.413Z,6.70
2018-12-23T17:58:08.871Z,6.50
2018-12-23T18:00:58.393Z,6.50
2018-12-23T18:04:06.602Z,6.50
2018-12-23T18:07:17.508Z,6.50
2018-12-23T18:10:27.503Z,6.50
2018-12-23T18:16:34.354Z,6.40
2018-12-23T18:22:50.021Z,6.30
2018-12-23T18:37:38.762Z,6.30
2018-12-23T18:44:11.789Z,6.30
2018-12-23T18:47:21.729Z,6.40
2018-12-23T18:57:39.020Z,6.50
2018-12-23T19:00:32.599Z,6.40
2018-12-23T19:06:41.114Z,6.30
2018-12-23T19:10:06.130Z,6.20
2018-12-23T19:13:01.911Z,6.30
2018-12-23T19:16:30.288Z,6.40
2018-12-23T19:19:23.728Z,6.30
2018-12-23T19:22:33.425Z,6.30
2018-12-23T19:25:44.690Z,6.40
2018-12-23T19:28:54.263Z,6.40
2018-12-23T19:32:02.421Z,6.40
2018-12-23T19:35:28.149Z,6.40
2018-12-23T19:41:49.790Z,6.40
2018-12-23T19:45:13.480Z,6.40
2018-12-23T19:48:09.301Z,6.30
2018-12-23T19:51:19.078Z,6.40
2018-12-23T19:54:41.681Z,6.40
2018-12-23T19:57:37.456Z,6.40
2018-12-23T20:00:46.914Z,6.40
2018-12-23T20:03:56.331Z,6.40
2018-12-23T20:07:18.866Z,6.40
2018-12-23T20:10:14.486Z,6.40
2018-12-23T20:13:38.875Z,6.40
2018-12-23T20:16:28.181Z,6.50
2018-12-23T20:19:55.172Z,6.50
2018-12-23T20:22:47.402Z,6.50
2018-12-23T20:25:57.094Z,6.50
2018-12-23T20:29:05.308Z,6.60
2018-12-23T20:36:01.807Z,6.60
2018-12-23T20:46:39.694Z,6.50
2018-12-23T20:49:31.657Z,6.50
2018-12-23T20:52:40.035Z,6.40
2018-12-23T20:55:49.617Z,6.40
2018-12-23T20:58:57.943Z,6.50
2018-12-23T21:02:06.071Z,6.50
2018-12-23T21:05:26.339Z,6.50
2018-12-23T21:08:42.818Z,6.50
2018-12-23T21:11:36.646Z,6.50
2018-12-23T21:15:00.183Z,6.50
2018-12-23T21:17:31.708Z,6.50
2018-12-23T21:20:40.080Z,6.50
2018-12-23T21:24:00.245Z,6.60
2018-12-23T21:26:58.203Z,6.60
2018-12-23T21:30:06.631Z,6.60
2018-12-23T21:33:29.488Z,6.60
2018-12-23T21:36:27.634Z,6.60
2018-12-23T21:39:37.196Z,6.60
2018-12-23T21:42:45.520Z,6.60
2018-12-23T21:46:13.898Z,6.60
2018-12-23T21:49:18.334Z,6.40
2018-12-23T21:52:30.005Z,6.50
2018-12-23T21:55:25.857Z,6.50
2018-12-23T21:58:50.224Z,6.50
2018-12-23T22:01:50.666Z,6.60
2018-12-23T22:05:16.693Z,6.50
2018-12-23T22:08:42.635Z,6.40
2018-12-23T22:11:36.388Z,6.40
2018-12-23T22:17:43.471Z,6.40
2018-12-23T22:20:27.761Z,6.40
2018-12-23T22:23:53.828Z,6.40
2018-12-23T23:31:46.817Z,5.90
